Terminal Aerodrome Forecast
Issued by NWS

Home | Current Version | Previous Version | Text Only | Print | Product List | Glossary On
Versions: 1 2 3 4 5 6 7 8 9 10 11 12 13 14 15 16 17 18 19 20 21
000
FTUS46 KMFR 191740
TAFOTH
TAF
KOTH 191740Z 1918/2018 23011KT P6SM -SHRA OVC050
     FM192300 22007KT 4SM -RA BR SCT008 BKN012 OVC030
     FM200200 17007KT P6SM -SHRA SCT020 OVC040 WS020/20035KT
     FM200600 21012KT 5SM -RA BR BKN015 OVC025
     FM201100 24016G22KT 3SM SHRA OVC015=

USA.gov is the U.S. government's official web portal to all federal, state and local government web resources and services.